sensor_id;sensor_type;location;lat;lon;timestamp;temperature;humidity
14014;DHT22;49110;52.584;13.408;2023-04-23T00:00:08;16.30;93.20
14014;DHT22;49110;52.584;13.408;2023-04-23T00:01:12;16.30;93.00
14014;DHT22;49110;52.584;13.408;2023-04-23T00:02:14;16.30;93.90
14014;DHT22;49110;52.584;13.408;2023-04-23T00:03:17;16.30;95.00
14014;DHT22;49110;52.584;13.408;2023-04-23T00:04:20;16.30;91.80
14014;DHT22;49110;52.584;13.408;2023-04-23T00:05:21;16.30;92.20
14014;DHT22;49110;52.584;13.408;2023-04-23T00:06:24;16.30;94.10
14014;DHT22;49110;52.584;13.408;2023-04-23T00:07:27;16.30;91.30
14014;DHT22;49110;52.584;13.408;2023-04-23T00:08:29;16.30;92.80
14014;DHT22;49110;52.584;13.408;2023-04-23T00:09:30;16.30;94.20
14014;DHT22;49110;52.584;13.408;2023-04-23T00:10:32;16.30;95.10
14014;DHT22;49110;52.584;13.408;2023-04-23T00:11:32;16.30;93.90
14014;DHT22;49110;52.584;13.408;2023-04-23T00:12:33;16.30;94.50
14014;DHT22;49110;52.584;13.408;2023-04-23T00:13:34;16.30;92.10
14014;DHT22;49110;52.584;13.408;2023-04-23T00:14:35;16.30;94.70
14014;DHT22;49110;52.584;13.408;2023-04-23T00:15:36;16.30;95.50
14014;DHT22;49110;52.584;13.408;2023-04-23T00:16:38;16.30;96.60
14014;DHT22;49110;52.584;13.408;2023-04-23T00:17:39;16.30;95.70
14014;DHT22;49110;52.584;13.408;2023-04-23T00:18:39;16.30;95.80
14014;DHT22;49110;52.584;13.408;2023-04-23T00:19:39;16.30;96.40
14014;DHT22;49110;52.584;13.408;2023-04-23T00:20:40;16.30;96.40
14014;DHT22;49110;52.584;13.408;2023-04-23T00:21:40;16.30;94.60
14014;DHT22;49110;52.584;13.408;2023-04-23T00:22:42;16.30;95.50
14014;DHT22;49110;52.584;13.408;2023-04-23T00:23:42;16.20;95.20
14014;DHT22;49110;52.584;13.408;2023-04-23T00:24:43;16.30;94.40
14014;DHT22;49110;52.584;13.408;2023-04-23T00:25:43;16.20;94.80
14014;DHT22;49110;52.584;13.408;2023-04-23T00:26:44;16.30;95.80
14014;DHT22;49110;52.584;13.408;2023-04-23T00:27:44;16.20;93.80
14014;DHT22;49110;52.584;13.408;2023-04-23T00:28:45;16.30;94.00
14014;DHT22;49110;52.584;13.408;2023-04-23T00:29:45;16.20;95.10
14014;DHT22;49110;52.584;13.408;2023-04-23T00:30:46;16.20;90.90
14014;DHT22;49110;52.584;13.408;2023-04-23T00:31:46;16.20;94.30
14014;DHT22;49110;52.584;13.408;2023-04-23T00:32:47;16.20;92.30
14014;DHT22;49110;52.584;13.408;2023-04-23T00:33:47;16.20;91.60
14014;DHT22;49110;52.584;13.408;2023-04-23T00:34:48;16.30;92.20
14014;DHT22;49110;52.584;13.408;2023-04-23T00:35:48;16.30;93.30
14014;DHT22;49110;52.584;13.408;2023-04-23T00:36:49;16.30;94.60
14014;DHT22;49110;52.584;13.408;2023-04-23T00:37:50;16.30;95.60
14014;DHT22;49110;52.584;13.408;2023-04-23T00:38:50;16.30;93.00
14014;DHT22;49110;52.584;13.408;2023-04-23T00:39:50;16.30;90.90
14014;DHT22;49110;52.584;13.408;2023-04-23T00:40:51;16.40;93.40
14014;DHT22;49110;52.584;13.408;2023-04-23T00:41:51;16.30;94.30
14014;DHT22;49110;52.584;13.408;2023-04-23T00:42:52;16.30;90.30
14014;DHT22;49110;52.584;13.408;2023-04-23T00:43:53;16.30;90.40
14014;DHT22;49110;52.584;13.408;2023-04-23T00:44:56;16.30;93.40
14014;DHT22;49110;52.584;13.408;2023-04-23T00:45:57;16.30;92.90
14014;DHT22;49110;52.584;13.408;2023-04-23T00:46:58;16.30;92.00
14014;DHT22;49110;52.584;13.408;2023-04-23T00:47:59;16.30;94.10
14014;DHT22;49110;52.584;13.408;2023-04-23T00:49:01;16.30;94.60
14014;DHT22;49110;52.584;13.408;2023-04-23T00:50:02;16.30;94.90
14014;DHT22;49110;52.584;13.408;2023-04-23T00:51:04;16.30;93.00
14014;DHT22;49110;52.584;13.408;2023-04-23T00:52:05;16.40;93.30
14014;DHT22;49110;52.584;13.408;2023-04-23T00:53:05;16.40;91.60
14014;DHT22;49110;52.584;13.408;2023-04-23T00:54:06;16.40;89.20
14014;DHT22;49110;52.584;13.408;2023-04-23T00:55:07;16.40;90.50
14014;DHT22;49110;52.584;13.408;2023-04-23T00:56:08;16.40;93.60
14014;DHT22;49110;52.584;13.408;2023-04-23T00:57:09;16.40;91.80
14014;DHT22;49110;52.584;13.408;2023-04-23T00:58:10;16.40;89.70
14014;DHT22;49110;52.584;13.408;2023-04-23T00:59:11;16.40;93.70
14014;DHT22;49110;52.584;13.408;2023-04-23T01:00:12;16.40;93.20
14014;DHT22;49110;52.584;13.408;2023-04-23T01:01:13;16.40;90.80
14014;DHT22;49110;52.584;13.408;2023-04-23T01:02:14;16.30;89.20
14014;DHT22;49110;52.584;13.408;2023-04-23T01:03:15;16.40;89.50
14014;DHT22;49110;52.584;13.408;2023-04-23T01:04:18;16.40;92.90
14014;DHT22;49110;52.584;13.408;2023-04-23T01:05:20;16.30;93.90
14014;DHT22;49110;52.584;13.408;2023-04-23T01:06:22;16.30;93.10
14014;DHT22;49110;52.584;13.408;2023-04-23T01:07:25;16.30;90.90
14014;DHT22;49110;52.584;13.408;2023-04-23T01:08:27;16.30;93.60
14014;DHT22;49110;52.584;13.408;2023-04-23T01:09:28;16.30;94.10
14014;DHT22;49110;52.584;13.408;2023-04-23T01:10:29;16.40;92.10
14014;DHT22;49110;52.584;13.408;2023-04-23T01:11:31;16.40;91.60
14014;DHT22;49110;52.584;13.408;2023-04-23T01:12:32;16.40;93.60
14014;DHT22;49110;52.584;13.408;2023-04-23T01:13:33;16.40;93.50
14014;DHT22;49110;52.584;13.408;2023-04-23T01:14:36;16.40;93.90
14014;DHT22;49110;52.584;13.408;2023-04-23T01:15:36;16.40;91.00
14014;DHT22;49110;52.584;13.408;2023-04-23T01:16:37;16.40;90.20
14014;DHT22;49110;52.584;13.408;2023-04-23T01:17:38;16.30;88.50
14014;DHT22;49110;52.584;13.408;2023-04-23T01:18:38;16.30;92.00
14014;DHT22;49110;52.584;13.408;2023-04-23T01:19:40;16.30;93.50
14014;DHT22;49110;52.584;13.408;2023-04-23T01:20:40;16.30;93.20
14014;DHT22;49110;52.584;13.408;2023-04-23T01:21:42;16.30;93.50
14014;DHT22;49110;52.584;13.408;2023-04-23T01:22:43;16.30;92.70
14014;DHT22;49110;52.584;13.408;2023-04-23T01:23:43;16.30;89.80
14014;DHT22;49110;52.584;13.408;2023-04-23T01:24:44;16.30;88.90
14014;DHT22;49110;52.584;13.408;2023-04-23T01:25:45;16.30;91.80
14014;DHT22;49110;52.584;13.408;2023-04-23T01:26:45;16.30;92.00
14014;DHT22;49110;52.584;13.408;2023-04-23T01:27:46;16.30;89.60
14014;DHT22;49110;52.584;13.408;2023-04-23T01:28:47;16.30;89.20
14014;DHT22;49110;52.584;13.408;2023-04-23T01:29:48;16.30;89.60
14014;DHT22;49110;52.584;13.408;2023-04-23T01:30:50;16.30;90.80
14014;DHT22;49110;52.584;13.408;2023-04-23T01:31:51;16.30;88.30
14014;DHT22;49110;52.584;13.408;2023-04-23T01:32:53;16.30;90.40
14014;DHT22;49110;52.584;13.408;2023-04-23T01:33:54;16.40;89.60
14014;DHT22;49110;52.584;13.408;2023-04-23T01:34:55;16.30;91.10
14014;DHT22;49110;52.584;13.408;2023-04-23T01:35:57;16.30;90.90
14014;DHT22;49110;52.584;13.408;2023-04-23T01:36:58;16.30;90.30
14014;DHT22;49110;52.584;13.408;2023-04-23T01:38:01;16.30;89.50
14014;DHT22;49110;52.584;13.408;2023-04-23T01:39:02;16.30;92.00
14014;DHT22;49110;52.584;13.408;2023-04-23T01:40:03;16.40;89.80
14014;DHT22;49110;52.584;13.408;2023-04-23T01:41:04;16.40;87.60
14014;DHT22;49110;52.584;13.408;2023-04-23T01:42:05;16.30;90.90
14014;DHT22;49110;52.584;13.408;2023-04-23T01:43:07;16.30;88.80
14014;DHT22;49110;52.584;13.408;2023-04-23T01:44:08;16.40;89.40
14014;DHT22;49110;52.584;13.408;2023-04-23T01:45:09;16.30;90.50
14014;DHT22;49110;52.584;13.408;2023-04-23T01:46:10;16.40;90.90
14014;DHT22;49110;52.584;13.408;2023-04-23T01:47:11;16.40;91.10
14014;DHT22;49110;52.584;13.408;2023-04-23T01:48:12;16.40;88.90
14014;DHT22;49110;52.584;13.408;2023-04-23T01:49:12;16.40;89.20
14014;DHT22;49110;52.584;13.408;2023-04-23T01:50:14;16.40;88.80
14014;DHT22;49110;52.584;13.408;2023-04-23T01:51:14;16.30;88.00
14014;DHT22;49110;52.584;13.408;2023-04-23T01:52:15;16.30;88.60
14014;DHT22;49110;52.584;13.408;2023-04-23T01:53:15;16.40;89.30
14014;DHT22;49110;52.584;13.408;2023-04-23T01:54:16;16.30;89.70
14014;DHT22;49110;52.584;13.408;2023-04-23T01:55:16;16.40;89.30
14014;DHT22;49110;52.584;13.408;2023-04-23T01:56:21;16.30;91.80
14014;DHT22;49110;52.584;13.408;2023-04-23T01:57:24;16.30;92.20
14014;DHT22;49110;52.584;13.408;2023-04-23T01:58:25;16.30;91.30
14014;DHT22;49110;52.584;13.408;2023-04-23T01:59:26;16.40;90.90
14014;DHT22;49110;52.584;13.408;2023-04-23T02:00:26;16.40;91.50
14014;DHT22;49110;52.584;13.408;2023-04-23T02:01:46;16.40;92.30
14014;DHT22;49110;52.584;13.408;2023-04-23T02:02:46;16.40;91.40
14014;DHT22;49110;52.584;13.408;2023-04-23T02:03:49;16.30;91.50
14014;DHT22;49110;52.584;13.408;2023-04-23T02:04:50;16.30;91.70
14014;DHT22;49110;52.584;13.408;2023-04-23T02:05:53;16.30;92.00
14014;DHT22;49110;52.584;13.408;2023-04-23T02:06:54;16.20;93.00
14014;DHT22;49110;52.584;13.408;2023-04-23T02:07:55;16.30;93.70
14014;DHT22;49110;52.584;13.408;2023-04-23T02:08:56;16.30;94.60
14014;DHT22;49110;52.584;13.408;2023-04-23T02:09:57;16.30;95.10
14014;DHT22;49110;52.584;13.408;2023-04-23T02:10:57;16.30;94.00
14014;DHT22;49110;52.584;13.408;2023-04-23T02:11:58;16.30;94.00
14014;DHT22;49110;52.584;13.408;2023-04-23T02:12:59;16.30;94.50
14014;DHT22;49110;52.584;13.408;2023-04-23T02:14:01;16.20;94.60
14014;DHT22;49110;52.584;13.408;2023-04-23T02:15:01;16.20;94.40
14014;DHT22;49110;52.584;13.408;2023-04-23T02:16:02;16.20;94.90
14014;DHT22;49110;52.584;13.408;2023-04-23T02:17:03;16.10;95.40
14014;DHT22;49110;52.584;13.408;2023-04-23T02:18:03;16.00;95.80
14014;DHT22;49110;52.584;13.408;2023-04-23T02:19:04;16.00;96.60
14014;DHT22;49110;52.584;13.408;2023-04-23T02:20:06;16.00;96.80
14014;DHT22;49110;52.584;13.408;2023-04-23T02:21:08;16.00;97.10
14014;DHT22;49110;52.584;13.408;2023-04-23T02:22:09;16.00;97.90
14014;DHT22;49110;52.584;13.408;2023-04-23T02:23:09;16.00;98.10
14014;DHT22;49110;52.584;13.408;2023-04-23T02:24:11;16.00;98.60
14014;DHT22;49110;52.584;13.408;2023-04-23T02:25:12;15.90;99.30
14014;DHT22;49110;52.584;13.408;2023-04-23T02:26:15;16.00;99.90
14014;DHT22;49110;52.584;13.408;2023-04-23T02:27:15;15.90;99.90
14014;DHT22;49110;52.584;13.408;2023-04-23T02:28:16;15.90;99.90
14014;DHT22;49110;52.584;13.408;2023-04-23T02:29:16;15.90;99.90
14014;DHT22;49110;52.584;13.408;2023-04-23T02:30:17;15.80;99.90
14014;DHT22;49110;52.584;13.408;2023-04-23T02:31:18;15.70;99.90
14014;DHT22;49110;52.584;13.408;2023-04-23T02:32:19;15.70;99.90
14014;DHT22;49110;52.584;13.408;2023-04-23T02:33:20;15.70;99.90
14014;DHT22;49110;52.584;13.408;2023-04-23T02:34:21;15.70;99.90
14014;DHT22;49110;52.584;13.408;2023-04-23T02:35:21;15.70;99.90
14014;DHT22;49110;52.584;13.408;2023-04-23T02:36:23;15.80;99.90
14014;DHT22;49110;52.584;13.408;2023-04-23T02:37:23;15.70;99.90
14014;DHT22;49110;52.584;13.408;2023-04-23T02:38:24;15.70;99.90
14014;DHT22;49110;52.584;13.408;2023-04-23T02:39:24;15.70;99.90
14014;DHT22;49110;52.584;13.408;2023-04-23T02:40:25;15.60;99.90
14014;DHT22;49110;52.584;13.408;2023-04-23T02:41:25;15.60;99.90
14014;DHT22;49110;52.584;13.408;2023-04-23T02:42:26;15.60;99.90
14014;DHT22;49110;52.584;13.408;2023-04-23T02:43:26;15.70;99.90
14014;DHT22;49110;52.584;13.408;2023-04-23T02:44:27;15.60;99.90
14014;DHT22;49110;52.584;13.408;2023-04-23T02:45:27;15.60;99.90
14014;DHT22;49110;52.584;13.408;2023-04-23T02:46:28;15.70;99.90
14014;DHT22;49110;52.584;13.408;2023-04-23T02:47:28;15.70;99.90
14014;DHT22;49110;52.584;13.408;2023-04-23T02:48:30;15.70;99.90
14014;DHT22;49110;52.584;13.408;2023-04-23T02:49:30;15.70;99.90
14014;DHT22;49110;52.584;13.408;2023-04-23T02:50:31;15.80;99.90
14014;DHT22;49110;52.584;13.408;2023-04-23T02:51:32;15.70;99.90
14014;DHT22;49110;52.584;13.408;2023-04-23T02:52:33;15.70;99.90
14014;DHT22;49110;52.584;13.408;2023-04-23T02:53:33;15.70;99.90
14014;DHT22;49110;52.584;13.408;2023-04-23T02:54:34;15.70;99.90
14014;DHT22;49110;52.584;13.408;2023-04-23T02:55:36;15.70;99.90
14014;DHT22;49110;52.584;13.408;2023-04-23T02:56:36;15.60;99.90
14014;DHT22;49110;52.584;13.408;2023-04-23T02:57:37;15.60;99.90
14014;DHT22;49110;52.584;13.408;2023-04-23T02:58:38;15.50;99.90
14014;DHT22;49110;52.584;13.408;2023-04-23T02:59:39;15.50;99.90
14014;DHT22;49110;52.584;13.408;2023-04-23T03:00:40;15.30;99.90
14014;DHT22;49110;52.584;13.408;2023-04-23T03:01:40;15.40;99.90
14014;DHT22;49110;52.584;13.408;2023-04-23T03:02:41;15.40;99.90
14014;DHT22;49110;52.584;13.408;2023-04-23T03:03:41;15.40;99.90
14014;DHT22;49110;52.584;13.408;2023-04-23T03:04:42;15.50;99.90
14014;DHT22;49110;52.584;13.408;2023-04-23T03:05:42;15.50;99.90
14014;DHT22;49110;52.584;13.408;2023-04-23T03:06:43;15.60;99.90
14014;DHT22;49110;52.584;13.408;2023-04-23T03:07:43;15.60;99.90
14014;DHT22;49110;52.584;13.408;2023-04-23T03:08:44;15.60;99.90
14014;DHT22;49110;52.584;13.408;2023-04-23T03:09:45;15.60;99.90
14014;DHT22;49110;52.584;13.408;2023-04-23T03:10:45;15.50;99.90
14014;DHT22;49110;52.584;13.408;2023-04-23T03:11:46;15.40;99.90
14014;DHT22;49110;52.584;13.408;2023-04-23T03:12:47;15.40;99.90
14014;DHT22;49110;52.584;13.408;2023-04-23T03:13:47;15.50;99.90
14014;DHT22;49110;52.584;13.408;2023-04-23T03:14:48;15.50;99.90
14014;DHT22;49110;52.584;13.408;2023-04-23T03:15:49;15.50;99.90
14014;DHT22;49110;52.584;13.408;2023-04-23T03:16:50;15.60;99.90
14014;DHT22;49110;52.584;13.408;2023-04-23T03:17:50;15.60;99.90
14014;DHT22;49110;52.584;13.408;2023-04-23T03:18:52;15.60;99.90
14014;DHT22;49110;52.584;13.408;2023-04-23T03:19:53;15.70;99.90
14014;DHT22;49110;52.584;13.408;2023-04-23T03:20:54;15.70;99.90
14014;DHT22;49110;52.584;13.408;2023-04-23T03:21:54;15.70;99.90
14014;DHT22;49110;52.584;13.408;2023-04-23T03:22:54;15.70;99.90
14014;DHT22;49110;52.584;13.408;2023-04-23T03:23:55;15.70;99.90
14014;DHT22;49110;52.584;13.408;2023-04-23T03:24:56;15.70;99.90
14014;DHT22;49110;52.584;13.408;2023-04-23T03:25:56;15.70;99.90
14014;DHT22;49110;52.584;13.408;2023-04-23T03:26:57;15.70;99.90
14014;DHT22;49110;52.584;13.408;2023-04-23T03:27:57;15.70;99.90
14014;DHT22;49110;52.584;13.408;2023-04-23T03:28:58;15.70;99.90
14014;DHT22;49110;52.584;13.408;2023-04-23T03:29:58;15.80;99.90
14014;DHT22;49110;52.584;13.408;2023-04-23T03:30:58;15.70;99.90
14014;DHT22;49110;52.584;13.408;2023-04-23T03:31:59;15.70;99.90
14014;DHT22;49110;52.584;13.408;2023-04-23T03:33:00;15.70;99.90
14014;DHT22;49110;52.584;13.408;2023-04-23T03:34:01;15.70;99.90
14014;DHT22;49110;52.584;13.408;2023-04-23T03:35:02;15.70;99.90
14014;DHT22;49110;52.584;13.408;2023-04-23T03:36:03;15.70;99.90
14014;DHT22;49110;52.584;13.408;2023-04-23T03:37:04;15.70;99.90
14014;DHT22;49110;52.584;13.408;2023-04-23T03:38:05;15.70;99.90
14014;DHT22;49110;52.584;13.408;2023-04-23T03:39:05;15.70;99.90
14014;DHT22;49110;52.584;13.408;2023-04-23T03:40:07;15.70;99.90
14014;DHT22;49110;52.584;13.408;2023-04-23T03:41:09;15.60;99.90
14014;DHT22;49110;52.584;13.408;2023-04-23T03:42:10;15.60;99.90
14014;DHT22;49110;52.584;13.408;2023-04-23T03:43:10;15.50;99.90
14014;DHT22;49110;52.584;13.408;2023-04-23T03:44:11;15.50;99.90
14014;DHT22;49110;52.584;13.408;2023-04-23T03:45:11;15.50;99.90
14014;DHT22;49110;52.584;13.408;2023-04-23T03:46:12;15.40;99.90
14014;DHT22;49110;52.584;13.408;2023-04-23T03:47:13;15.40;99.90
14014;DHT22;49110;52.584;13.408;2023-04-23T03:48:13;15.30;99.90
14014;DHT22;49110;52.584;13.408;2023-04-23T03:49:14;15.30;99.90
14014;DHT22;49110;52.584;13.408;2023-04-23T03:50:14;15.30;99.90
14014;DHT22;49110;52.584;13.408;2023-04-23T03:51:16;15.40;99.90
14014;DHT22;49110;52.584;13.408;2023-04-23T03:52:17;15.40;99.90
14014;DHT22;49110;52.584;13.408;2023-04-23T03:53:17;15.50;99.90
14014;DHT22;49110;52.584;13.408;2023-04-23T03:54:18;15.50;99.90
14014;DHT22;49110;52.584;13.408;2023-04-23T03:55:18;15.50;99.90
14014;DHT22;49110;52.584;13.408;2023-04-23T03:56:20;15.50;99.90
14014;DHT22;49110;52.584;13.408;2023-04-23T03:57:20;15.50;99.90
14014;DHT22;49110;52.584;13.408;2023-04-23T03:58:21;15.50;99.90
14014;DHT22;49110;52.584;13.408;2023-04-23T03:59:21;15.40;99.90
14014;DHT22;49110;52.584;13.408;2023-04-23T04:00:22;15.40;99.90
14014;DHT22;49110;52.584;13.408;2023-04-23T04:01:22;15.40;99.90
14014;DHT22;49110;52.584;13.408;2023-04-23T04:02:23;15.40;99.90
14014;DHT22;49110;52.584;13.408;2023-04-23T04:03:23;15.50;99.90
14014;DHT22;49110;52.584;13.408;2023-04-23T04:04:25;15.50;99.90
14014;DHT22;49110;52.584;13.408;2023-04-23T04:05:25;15.50;99.90
14014;DHT22;49110;52.584;13.408;2023-04-23T04:06:26;15.50;99.90
14014;DHT22;49110;52.584;13.408;2023-04-23T04:07:26;15.50;99.90
14014;DHT22;49110;52.584;13.408;2023-04-23T04:08:27;15.60;99.90
14014;DHT22;49110;52.584;13.408;2023-04-23T04:09:28;15.60;99.90
14014;DHT22;49110;52.584;13.408;2023-04-23T04:10:29;15.60;99.90
14014;DHT22;49110;52.584;13.408;2023-04-23T04:11:30;15.60;99.90
14014;DHT22;49110;52.584;13.408;2023-04-23T04:12:30;15.60;99.90
14014;DHT22;49110;52.584;13.408;2023-04-23T04:13:31;15.60;99.90
14014;DHT22;49110;52.584;13.408;2023-04-23T04:14:31;15.70;99.90
14014;DHT22;49110;52.584;13.408;2023-04-23T04:15:32;15.70;99.90
14014;DHT22;49110;52.584;13.408;2023-04-23T04:16:32;15.70;99.90
14014;DHT22;49110;52.584;13.408;2023-04-23T04:17:33;15.70;99.90
14014;DHT22;49110;52.584;13.408;2023-04-23T04:18:33;15.60;99.90
14014;DHT22;49110;52.584;13.408;2023-04-23T04:19:34;15.70;99.90
14014;DHT22;49110;52.584;13.408;2023-04-23T04:20:35;15.60;99.90
14014;DHT22;49110;52.584;13.408;2023-04-23T04:21:35;15.70;99.90
14014;DHT22;49110;52.584;13.408;2023-04-23T04:22:36;15.60;99.90
14014;DHT22;49110;52.584;13.408;2023-04-23T04:23:36;15.70;99.90
14014;DHT22;49110;52.584;13.408;2023-04-23T04:24:37;15.70;99.90
14014;DHT22;49110;52.584;13.408;2023-04-23T04:25:37;15.70;99.90
14014;DHT22;49110;52.584;13.408;2023-04-23T04:26:41;15.60;99.90
14014;DHT22;49110;52.584;13.408;2023-04-23T04:27:43;15.60;99.90
14014;DHT22;49110;52.584;13.408;2023-04-23T04:28:43;15.60;99.90
14014;DHT22;49110;52.584;13.408;2023-04-23T04:29:44;15.60;99.90
14014;DHT22;49110;52.584;13.408;2023-04-23T04:30:45;15.70;99.90
14014;DHT22;49110;52.584;13.408;2023-04-23T04:31:46;15.70;99.90
14014;DHT22;49110;52.584;13.408;2023-04-23T04:32:47;15.70;99.90
14014;DHT22;49110;52.584;13.408;2023-04-23T04:33:50;15.70;99.90
14014;DHT22;49110;52.584;13.408;2023-04-23T04:34:50;15.80;99.90
14014;DHT22;49110;52.584;13.408;2023-04-23T04:35:51;15.80;99.90
14014;DHT22;49110;52.584;13.408;2023-04-23T04:36:54;15.80;99.90
14014;DHT22;49110;52.584;13.408;2023-04-23T04:37:55;15.80;99.90
14014;DHT22;49110;52.584;13.408;2023-04-23T04:38:55;15.80;99.90
14014;DHT22;49110;52.584;13.408;2023-04-23T04:39:57;15.80;99.90
14014;DHT22;49110;52.584;13.408;2023-04-23T04:40:59;15.80;99.90
14014;DHT22;49110;52.584;13.408;2023-04-23T04:42:02;15.80;99.90
14014;DHT22;49110;52.584;13.408;2023-04-23T04:43:03;15.90;99.90
14014;DHT22;49110;52.584;13.408;2023-04-23T04:44:07;15.90;99.90
14014;DHT22;49110;52.584;13.408;2023-04-23T04:45:07;15.90;99.90
14014;DHT22;49110;52.584;13.408;2023-04-23T04:46:09;16.00;99.90
14014;DHT22;49110;52.584;13.408;2023-04-23T04:47:11;16.00;99.90
14014;DHT22;49110;52.584;13.408;2023-04-23T04:48:12;16.10;99.90
14014;DHT22;49110;52.584;13.408;2023-04-23T04:49:13;16.10;99.90
14014;DHT22;49110;52.584;13.408;2023-04-23T04:50:13;16.10;99.90
14014;DHT22;49110;52.584;13.408;2023-04-23T04:51:14;16.20;99.90
14014;DHT22;49110;52.584;13.408;2023-04-23T04:52:15;16.20;99.90
14014;DHT22;49110;52.584;13.408;2023-04-23T04:53:16;16.20;99.90
14014;DHT22;49110;52.584;13.408;2023-04-23T04:54:16;16.30;99.90
14014;DHT22;49110;52.584;13.408;2023-04-23T04:55:17;16.20;99.90
14014;DHT22;49110;52.584;13.408;2023-04-23T04:56:17;16.30;99.90
14014;DHT22;49110;52.584;13.408;2023-04-23T04:57:18;16.30;99.90
14014;DHT22;49110;52.584;13.408;2023-04-23T04:58:20;16.30;99.90
14014;DHT22;49110;52.584;13.408;2023-04-23T04:59:21;16.30;99.90
14014;DHT22;49110;52.584;13.408;2023-04-23T05:00:23;16.30;99.90
14014;DHT22;49110;52.584;13.408;2023-04-23T05:01:27;16.30;99.90
14014;DHT22;49110;52.584;13.408;2023-04-23T05:02:28;16.30;99.90
14014;DHT22;49110;52.584;13.408;2023-04-23T05:03:28;16.30;99.90
14014;DHT22;49110;52.584;13.408;2023-04-23T05:04:29;16.30;99.90
14014;DHT22;49110;52.584;13.408;2023-04-23T05:05:32;16.30;99.90
14014;DHT22;49110;52.584;13.408;2023-04-23T05:06:32;16.30;99.90
14014;DHT22;49110;52.584;13.408;2023-04-23T05:07:33;16.20;99.90
14014;DHT22;49110;52.584;13.408;2023-04-23T05:08:33;16.20;99.90
14014;DHT22;49110;52.584;13.408;2023-04-23T05:09:34;16.20;99.90
14014;DHT22;49110;52.584;13.408;2023-04-23T05:10:34;16.20;99.90
14014;DHT22;49110;52.584;13.408;2023-04-23T05:11:35;16.20;99.90
14014;DHT22;49110;52.584;13.408;2023-04-23T05:12:35;16.20;99.90
14014;DHT22;49110;52.584;13.408;2023-04-23T05:13:36;16.20;99.90
14014;DHT22;49110;52.584;13.408;2023-04-23T05:14:37;16.20;99.90
14014;DHT22;49110;52.584;13.408;2023-04-23T05:15:37;16.20;99.90
14014;DHT22;49110;52.584;13.408;2023-04-23T05:16:38;16.20;99.90
14014;DHT22;49110;52.584;13.408;2023-04-23T05:17:39;16.20;99.90
14014;DHT22;49110;52.584;13.408;2023-04-23T05:18:40;16.10;99.90
14014;DHT22;49110;52.584;13.408;2023-04-23T05:19:41;16.10;99.90
14014;DHT22;49110;52.584;13.408;2023-04-23T05:20:41;16.10;99.90
14014;DHT22;49110;52.584;13.408;2023-04-23T05:21:42;16.10;99.90
14014;DHT22;49110;52.584;13.408;2023-04-23T05:22:43;16.10;99.90
14014;DHT22;49110;52.584;13.408;2023-04-23T05:23:43;16.20;99.90
14014;DHT22;49110;52.584;13.408;2023-04-23T05:24:43;16.20;99.90
14014;DHT22;49110;52.584;13.408;2023-04-23T05:25:45;16.20;99.90
14014;DHT22;49110;52.584;13.408;2023-04-23T05:26:46;16.20;99.90
14014;DHT22;49110;52.584;13.408;2023-04-23T05:27:46;16.30;99.90
14014;DHT22;49110;52.584;13.408;2023-04-23T05:28:47;16.30;99.90
14014;DHT22;49110;52.584;13.408;2023-04-23T05:29:47;16.30;99.90
14014;DHT22;49110;52.584;13.408;2023-04-23T05:30:48;16.30;99.90
14014;DHT22;49110;52.584;13.408;2023-04-23T05:31:49;16.30;99.90
14014;DHT22;49110;52.584;13.408;2023-04-23T05:32:50;16.40;99.90
14014;DHT22;49110;52.584;13.408;2023-04-23T05:33:51;16.40;99.90
14014;DHT22;49110;52.584;13.408;2023-04-23T05:34:51;16.40;99.90
14014;DHT22;49110;52.584;13.408;2023-04-23T05:35:52;16.50;99.90
14014;DHT22;49110;52.584;13.408;2023-04-23T05:36:53;16.60;99.90
14014;DHT22;49110;52.584;13.408;2023-04-23T05:37:54;16.60;99.90
14014;DHT22;49110;52.584;13.408;2023-04-23T05:38:55;16.60;99.90
14014;DHT22;49110;52.584;13.408;2023-04-23T05:39:56;16.70;99.90
14014;DHT22;49110;52.584;13.408;2023-04-23T05:41:01;16.70;99.90
14014;DHT22;49110;52.584;13.408;2023-04-23T05:42:02;16.80;99.90
14014;DHT22;49110;52.584;13.408;2023-04-23T05:43:03;16.80;99.90
14014;DHT22;49110;52.584;13.408;2023-04-23T05:44:03;16.80;99.90
14014;DHT22;49110;52.584;13.408;2023-04-23T05:45:05;16.80;99.90
14014;DHT22;49110;52.584;13.408;2023-04-23T05:46:05;16.80;99.90
14014;DHT22;49110;52.584;13.408;2023-04-23T05:47:07;16.90;99.90
14014;DHT22;49110;52.584;13.408;2023-04-23T05:48:08;16.80;99.90
14014;DHT22;49110;52.584;13.408;2023-04-23T05:49:08;16.80;99.90
14014;DHT22;49110;52.584;13.408;2023-04-23T05:50:09;16.80;99.90
14014;DHT22;49110;52.584;13.408;2023-04-23T05:51:10;16.90;99.90
14014;DHT22;49110;52.584;13.408;2023-04-23T05:52:11;16.80;99.90
14014;DHT22;49110;52.584;13.408;2023-04-23T05:53:12;16.80;99.90
14014;DHT22;49110;52.584;13.408;2023-04-23T05:54:12;16.80;99.90
14014;DHT22;49110;52.584;13.408;2023-04-23T05:55:13;16.80;99.90
14014;DHT22;49110;52.584;13.408;2023-04-23T05:56:17;16.70;99.90
14014;DHT22;49110;52.584;13.408;2023-04-23T05:57:18;16.70;99.90
14014;DHT22;49110;52.584;13.408;2023-04-23T05:58:18;16.70;99.90
14014;DHT22;49110;52.584;13.408;2023-04-23T05:59:18;16.70;99.90
14014;DHT22;49110;52.584;13.408;2023-04-23T06:00:19;16.70;99.90
14014;DHT22;49110;52.584;13.408;2023-04-23T06:01:20;16.70;99.90
14014;DHT22;49110;52.584;13.408;2023-04-23T06:02:20;16.70;99.90
14014;DHT22;49110;52.584;13.408;2023-04-23T06:03:21;16.70;99.90
14014;DHT22;49110;52.584;13.408;2023-04-23T06:04:22;16.70;99.90
14014;DHT22;49110;52.584;13.408;2023-04-23T06:05:22;16.70;99.90
14014;DHT22;49110;52.584;13.408;2023-04-23T06:06:22;16.70;99.90
14014;DHT22;49110;52.584;13.408;2023-04-23T06:07:23;16.70;99.90
14014;DHT22;49110;52.584;13.408;2023-04-23T06:08:24;16.70;99.90
14014;DHT22;49110;52.584;13.408;2023-04-23T06:09:24;16.70;99.90
14014;DHT22;49110;52.584;13.408;2023-04-23T06:10:25;16.70;99.90
14014;DHT22;49110;52.584;13.408;2023-04-23T06:11:26;16.70;99.90
14014;DHT22;49110;52.584;13.408;2023-04-23T06:12:26;16.70;99.90
14014;DHT22;49110;52.584;13.408;2023-04-23T06:13:27;16.70;99.90
14014;DHT22;49110;52.584;13.408;2023-04-23T06:14:30;16.80;99.90
14014;DHT22;49110;52.584;13.408;2023-04-23T06:15:30;16.80;99.90
14014;DHT22;49110;52.584;13.408;2023-04-23T06:16:31;16.80;99.90
14014;DHT22;49110;52.584;13.408;2023-04-23T06:17:31;16.80;99.90
14014;DHT22;49110;52.584;13.408;2023-04-23T06:18:32;16.80;99.90